createdAt,value
2018-06-30T00:00:34.641Z,13.40
2018-06-30T00:03:02.466Z,13.40
2018-06-30T00:05:30.357Z,13.40
2018-06-30T00:07:57.990Z,13.40
2018-06-30T00:10:29.985Z,13.40
2018-06-30T00:12:59.129Z,13.40
2018-06-30T00:15:26.978Z,13.40
2018-06-30T00:17:54.995Z,13.30
2018-06-30T00:20:22.777Z,13.20
2018-06-30T00:22:50.569Z,13.20
2018-06-30T00:25:18.308Z,13.10
2018-06-30T00:27:46.133Z,13.10
2018-06-30T00:30:13.961Z,13.00
2018-06-30T00:35:09.237Z,13.00
2018-06-30T00:37:36.845Z,12.90
2018-06-30T00:40:04.756Z,12.90
2018-06-30T00:42:32.487Z,12.90
2018-06-30T00:45:00.188Z,12.90
2018-06-30T00:47:27.907Z,12.90
2018-06-30T00:52:23.295Z,12.90
2018-06-30T00:54:51.082Z,12.90
2018-06-30T00:59:46.746Z,12.80
2018-06-30T01:02:14.381Z,12.80
2018-06-30T01:07:09.602Z,12.70
2018-06-30T01:12:05.038Z,12.70
2018-06-30T01:14:32.909Z,12.60
2018-06-30T01:17:00.609Z,12.70
2018-06-30T01:19:28.327Z,12.70
2018-06-30T01:21:56.156Z,12.70
2018-06-30T01:24:24.053Z,12.70
2018-06-30T01:26:51.775Z,12.80
2018-06-30T01:29:19.522Z,12.90
2018-06-30T01:31:47.192Z,12.90
2018-06-30T01:34:14.968Z,13.00
2018-06-30T01:36:42.809Z,13.10
2018-06-30T01:39:11.467Z,13.10
2018-06-30T01:41:39.665Z,13.10
2018-06-30T01:44:07.484Z,13.10
2018-06-30T01:49:03.785Z,13.30
2018-06-30T01:51:31.491Z,13.40
2018-06-30T01:58:54.617Z,13.60
2018-06-30T02:01:22.324Z,13.60
2018-06-30T02:03:50.207Z,13.60
2018-06-30T02:06:18.214Z,13.60
2018-06-30T02:08:45.912Z,13.60
2018-06-30T02:11:13.639Z,13.70
2018-06-30T02:13:41.354Z,13.80
2018-06-30T02:21:04.279Z,14.40
2018-06-30T02:23:31.983Z,14.70
2018-06-30T02:25:59.763Z,14.90
2018-06-30T02:28:27.405Z,15.00
2018-06-30T02:30:55.204Z,15.20
2018-06-30T02:33:22.848Z,15.30
2018-06-30T02:38:18.180Z,15.40
2018-06-30T02:40:45.906Z,15.40
2018-06-30T02:43:13.662Z,15.40
2018-06-30T02:45:41.377Z,15.40
2018-06-30T02:48:09.207Z,15.40
2018-06-30T02:50:37.009Z,15.40
2018-06-30T02:53:04.753Z,15.40
2018-06-30T02:58:00.109Z,15.40
2018-06-30T03:00:27.727Z,15.30
2018-06-30T03:02:55.418Z,15.30
2018-06-30T03:05:23.032Z,15.20
2018-06-30T03:07:50.725Z,15.20
2018-06-30T03:10:18.492Z,15.20
2018-06-30T03:12:46.122Z,15.10
2018-06-30T03:15:13.951Z,15.10
2018-06-30T03:17:41.675Z,15.10
2018-06-30T03:25:04.653Z,15.00
2018-06-30T03:32:27.589Z,14.90
2018-06-30T03:34:55.418Z,14.90
2018-06-30T03:37:23.070Z,14.90
2018-06-30T03:39:51.841Z,14.90
2018-06-30T03:44:47.143Z,14.90
2018-06-30T03:47:14.983Z,14.90
2018-06-30T03:49:42.703Z,14.90
2018-06-30T03:52:10.452Z,14.90
2018-06-30T03:57:05.754Z,14.80
2018-06-30T03:59:33.437Z,14.80
2018-06-30T04:04:28.809Z,14.70
2018-06-30T04:06:56.417Z,14.70
2018-06-30T04:11:51.789Z,14.70
2018-06-30T04:14:19.492Z,14.70
2018-06-30T04:16:47.222Z,14.70
2018-06-30T04:19:15.743Z,14.70
2018-06-30T04:21:44.510Z,14.70
2018-06-30T04:24:12.598Z,14.70
2018-06-30T04:26:41.848Z,14.70
2018-06-30T04:29:09.755Z,14.70
2018-06-30T04:31:37.532Z,14.70
2018-06-30T04:34:05.591Z,14.70
2018-06-30T04:39:02.700Z,14.60
2018-06-30T04:41:30.386Z,14.60
2018-06-30T04:43:58.235Z,14.60
2018-06-30T04:46:26.542Z,14.70
2018-06-30T04:48:54.239Z,14.70
2018-06-30T04:51:22.128Z,14.80
2018-06-30T04:53:49.825Z,14.80
2018-06-30T04:56:17.686Z,14.80
2018-06-30T04:58:45.358Z,14.90
2018-06-30T05:01:12.970Z,15.00
2018-06-30T05:03:40.664Z,15.00
2018-06-30T05:06:08.434Z,15.10
2018-06-30T05:08:36.149Z,15.00
2018-06-30T05:15:59.526Z,15.00
2018-06-30T05:23:22.407Z,15.50
2018-06-30T05:28:18.613Z,16.10
2018-06-30T05:30:46.310Z,16.20
2018-06-30T05:35:41.771Z,16.80
2018-06-30T05:38:09.510Z,16.80
2018-06-30T05:40:37.111Z,16.80
2018-06-30T05:43:05.156Z,16.60
2018-06-30T05:45:32.857Z,16.60
2018-06-30T05:48:00.568Z,16.50
2018-06-30T05:50:28.429Z,16.30
2018-06-30T05:52:56.112Z,16.20
2018-06-30T05:55:24.926Z,16.20
2018-06-30T05:57:52.692Z,16.10
2018-06-30T06:00:20.484Z,16.00
2018-06-30T06:02:48.146Z,16.10
2018-06-30T06:05:15.916Z,16.40
2018-06-30T06:10:11.458Z,18.30
2018-06-30T06:15:07.328Z,18.80
2018-06-30T06:17:35.874Z,18.30
2018-06-30T06:20:04.783Z,17.70
2018-06-30T06:22:32.517Z,17.30
2018-06-30T06:29:56.373Z,16.50
2018-06-30T06:32:24.250Z,16.40
2018-06-30T06:34:51.968Z,16.90
2018-06-30T06:37:19.607Z,18.20
2018-06-30T06:42:14.878Z,20.20
2018-06-30T06:44:42.692Z,20.10
2018-06-30T06:49:38.217Z,18.90
2018-06-30T06:54:34.244Z,18.30
2018-06-30T06:59:29.704Z,18.70
2018-06-30T07:01:57.929Z,19.20
2018-06-30T07:04:25.803Z,19.10
2018-06-30T07:06:53.429Z,18.70
2018-06-30T07:09:21.118Z,18.30
2018-06-30T07:11:48.826Z,18.20
2018-06-30T07:14:16.521Z,18.10
2018-06-30T07:16:44.261Z,18.20
2018-06-30T07:19:12.223Z,18.70
2018-06-30T07:21:40.038Z,19.30
2018-06-30T07:24:08.364Z,19.20
2018-06-30T07:26:37.499Z,19.00
2018-06-30T07:29:05.206Z,18.90
2018-06-30T07:34:00.565Z,19.60
2018-06-30T07:36:28.345Z,19.30
2018-06-30T07:38:56.205Z,19.00
2018-06-30T07:41:23.890Z,18.80
2018-06-30T07:43:51.582Z,18.70
2018-06-30T07:46:19.312Z,18.60
2018-06-30T07:48:47.124Z,18.40
2018-06-30T07:51:14.810Z,18.40
2018-06-30T07:53:42.453Z,18.50
2018-06-30T07:56:10.217Z,19.10
2018-06-30T07:58:37.992Z,19.70
2018-06-30T08:01:06.985Z,19.90
2018-06-30T08:03:34.722Z,19.90
2018-06-30T08:06:02.456Z,19.40
2018-06-30T08:08:30.185Z,19.80
2018-06-30T08:10:57.913Z,20.00
2018-06-30T08:13:25.679Z,20.30
2018-06-30T08:15:53.443Z,20.50
2018-06-30T08:18:21.130Z,20.80
2018-06-30T08:20:48.835Z,20.80
2018-06-30T08:23:16.675Z,20.80
2018-06-30T08:25:44.594Z,20.80
2018-06-30T08:28:12.621Z,21.00
2018-06-30T08:30:40.556Z,20.70
2018-06-30T08:35:36.123Z,21.00
2018-06-30T08:38:03.960Z,21.00
2018-06-30T08:40:31.826Z,21.10
2018-06-30T08:42:59.768Z,21.00
2018-06-30T08:45:27.627Z,21.20
2018-06-30T08:47:55.505Z,21.30
2018-06-30T08:50:23.379Z,21.60
2018-06-30T08:52:50.983Z,21.40
2018-06-30T08:55:18.795Z,21.30
2018-06-30T08:57:46.531Z,21.30
2018-06-30T09:02:41.825Z,21.50
2018-06-30T09:05:09.456Z,21.40
2018-06-30T09:07:37.265Z,21.50
2018-06-30T09:10:04.969Z,21.70
2018-06-30T09:12:32.610Z,22.00
2018-06-30T09:15:00.359Z,22.10
2018-06-30T09:19:56.255Z,22.10
2018-06-30T09:22:24.198Z,21.90
2018-06-30T09:24:51.981Z,21.80
2018-06-30T09:27:19.651Z,21.90
2018-06-30T09:29:47.521Z,21.60
2018-06-30T09:32:15.190Z,21.90
2018-06-30T09:34:42.919Z,21.50
2018-06-30T09:37:10.706Z,21.50
2018-06-30T09:39:38.524Z,21.80
2018-06-30T09:42:06.597Z,21.80
2018-06-30T09:44:34.367Z,21.70
2018-06-30T09:47:02.226Z,21.60
2018-06-30T09:49:29.968Z,21.60
2018-06-30T09:51:57.801Z,21.70
2018-06-30T09:54:25.602Z,22.00
2018-06-30T09:59:21.062Z,22.10
2018-06-30T10:01:48.797Z,22.30
2018-06-30T10:04:16.672Z,22.60
2018-06-30T10:06:44.367Z,22.70
2018-06-30T10:09:12.258Z,22.80
2018-06-30T10:11:40.401Z,22.00
2018-06-30T10:14:08.209Z,22.00
2018-06-30T10:16:37.319Z,22.30
2018-06-30T10:19:05.365Z,22.50
2018-06-30T10:21:33.494Z,22.80
2018-06-30T10:24:03.058Z,22.80
2018-06-30T10:29:00.011Z,23.00
2018-06-30T10:31:28.530Z,23.00
2018-06-30T10:33:56.246Z,22.80
2018-06-30T10:36:24.410Z,22.90
2018-06-30T10:38:52.902Z,22.70
2018-06-30T10:41:20.769Z,22.60
2018-06-30T10:43:49.517Z,22.60
2018-06-30T10:46:18.094Z,22.70
2018-06-30T10:48:47.598Z,22.90
2018-06-30T10:51:15.861Z,22.40
2018-06-30T10:53:43.912Z,22.60
2018-06-30T10:56:11.771Z,22.80
2018-06-30T11:01:08.790Z,22.50
2018-06-30T11:03:36.489Z,22.50
2018-06-30T11:06:04.650Z,22.50
2018-06-30T11:08:32.356Z,22.60
2018-06-30T11:11:00.144Z,23.00
2018-06-30T11:13:28.241Z,23.00
2018-06-30T11:15:56.006Z,22.80
2018-06-30T11:18:24.035Z,22.60
2018-06-30T11:20:52.827Z,22.50
2018-06-30T11:23:20.932Z,22.70
2018-06-30T11:25:48.819Z,22.90
2018-06-30T11:28:16.687Z,22.80
2018-06-30T11:35:42.136Z,22.40
2018-06-30T11:40:38.043Z,22.70
2018-06-30T11:43:06.908Z,22.80
2018-06-30T11:45:35.816Z,23.10
2018-06-30T11:48:04.116Z,23.10
2018-06-30T11:53:03.657Z,23.20
2018-06-30T11:55:33.296Z,23.20
2018-06-30T11:58:02.087Z,23.20
2018-06-30T12:00:30.800Z,23.20
2018-06-30T12:02:59.663Z,23.20
2018-06-30T12:05:28.748Z,23.40
2018-06-30T12:07:57.731Z,23.00
2018-06-30T12:10:25.778Z,22.90
2018-06-30T12:12:53.590Z,22.60
2018-06-30T12:15:23.447Z,22.40
2018-06-30T12:17:51.349Z,22.70
2018-06-30T12:20:19.837Z,22.80
2018-06-30T12:22:48.807Z,22.80
2018-06-30T12:25:16.689Z,23.00
2018-06-30T12:27:45.470Z,23.10
2018-06-30T12:30:13.926Z,23.00
2018-06-30T12:40:06.668Z,23.40
2018-06-30T12:42:35.425Z,23.50
2018-06-30T12:45:03.514Z,23.10
2018-06-30T12:47:34.288Z,23.20
2018-06-30T12:50:02.716Z,22.90
2018-06-30T12:52:31.997Z,22.70
2018-06-30T12:57:29.160Z,23.00
2018-06-30T13:02:24.868Z,23.30
2018-06-30T13:04:52.726Z,23.30
2018-06-30T13:07:22.080Z,23.10
2018-06-30T13:09:50.126Z,22.80
2018-06-30T13:14:46.643Z,23.00
2018-06-30T13:17:14.695Z,23.30
2018-06-30T13:19:42.345Z,23.30
2018-06-30T13:22:11.222Z,23.30
2018-06-30T13:24:40.083Z,23.30
2018-06-30T13:27:08.390Z,23.10
2018-06-30T13:29:36.164Z,23.00
2018-06-30T13:32:05.015Z,23.00
2018-06-30T13:37:04.196Z,23.10
2018-06-30T13:39:31.907Z,22.90
2018-06-30T13:41:59.505Z,22.60
2018-06-30T13:44:27.990Z,22.60
2018-06-30T13:46:55.946Z,22.80
2018-06-30T13:49:23.869Z,22.80
2018-06-30T13:54:22.143Z,22.90
2018-06-30T13:56:50.137Z,23.00
2018-06-30T14:04:16.203Z,23.10
2018-06-30T14:06:43.890Z,23.10
2018-06-30T14:09:12.132Z,22.80
2018-06-30T14:14:07.951Z,22.60
2018-06-30T14:16:37.832Z,22.50
2018-06-30T14:19:05.669Z,22.50
2018-06-30T14:21:33.724Z,22.50
2018-06-30T14:24:01.540Z,22.50
2018-06-30T14:26:29.877Z,22.60
2018-06-30T14:28:58.632Z,22.70
2018-06-30T14:31:26.334Z,22.60
2018-06-30T14:33:54.631Z,22.40
2018-06-30T14:36:22.459Z,22.20
2018-06-30T14:38:50.109Z,22.30
2018-06-30T14:43:45.466Z,22.30
2018-06-30T14:48:41.186Z,22.30
2018-06-30T14:51:09.652Z,22.30
2018-06-30T14:53:37.454Z,22.30
2018-06-30T14:56:05.768Z,22.20
2018-06-30T14:58:33.426Z,22.10
2018-06-30T15:01:01.158Z,22.00
2018-06-30T15:03:28.829Z,22.20
2018-06-30T15:05:56.564Z,22.40
2018-06-30T15:08:24.255Z,22.50
2018-06-30T15:10:51.983Z,22.40
2018-06-30T15:13:19.697Z,22.20
2018-06-30T15:15:47.487Z,22.10
2018-06-30T15:18:15.524Z,22.00
2018-06-30T15:20:43.171Z,21.90
2018-06-30T15:23:11.217Z,21.90
2018-06-30T15:25:39.136Z,22.00
2018-06-30T15:28:06.851Z,22.00
2018-06-30T15:30:34.671Z,22.00
2018-06-30T15:33:02.342Z,21.90
2018-06-30T15:37:57.736Z,22.00
2018-06-30T15:40:25.414Z,22.10
2018-06-30T15:42:53.025Z,22.00
2018-06-30T15:45:20.846Z,21.90
2018-06-30T15:50:16.111Z,21.80
2018-06-30T15:52:43.752Z,21.70
2018-06-30T15:55:11.941Z,21.60
2018-06-30T15:57:39.573Z,21.70
2018-06-30T16:02:35.304Z,21.60
2018-06-30T16:05:03.031Z,21.70
2018-06-30T16:07:30.686Z,21.70
2018-06-30T16:09:59.319Z,21.70
2018-06-30T16:14:54.653Z,21.50
2018-06-30T16:17:23.059Z,21.60
2018-06-30T16:19:50.747Z,21.60
2018-06-30T16:22:19.658Z,21.50
2018-06-30T16:27:14.900Z,21.40
2018-06-30T16:29:42.593Z,21.40
2018-06-30T16:32:10.414Z,21.30
2018-06-30T16:34:38.151Z,21.40
2018-06-30T16:37:05.891Z,21.40
2018-06-30T16:39:33.647Z,21.40
2018-06-30T16:42:01.322Z,21.30
2018-06-30T16:44:29.175Z,21.30
2018-06-30T16:46:56.921Z,21.20
2018-06-30T16:49:24.621Z,21.10
2018-06-30T16:51:52.338Z,21.10
2018-06-30T16:54:20.121Z,21.00
2018-06-30T16:56:47.782Z,21.00
2018-06-30T16:59:15.494Z,20.90
2018-06-30T17:01:43.268Z,20.80
2018-06-30T17:06:38.722Z,20.80
2018-06-30T17:09:09.686Z,20.70
2018-06-30T17:11:37.542Z,20.50
2018-06-30T17:14:05.270Z,20.40
2018-06-30T17:16:33.120Z,20.40
2018-06-30T17:23:56.252Z,20.40
2018-06-30T17:26:24.160Z,20.40
2018-06-30T17:28:51.941Z,20.30
2018-06-30T17:33:47.819Z,20.20
2018-06-30T17:36:15.478Z,20.10
2018-06-30T17:38:43.929Z,19.90
2018-06-30T17:41:12.058Z,19.90
2018-06-30T17:43:39.795Z,19.80
2018-06-30T17:46:07.573Z,19.80
2018-06-30T17:48:35.415Z,19.70
2018-06-30T17:51:03.264Z,19.60
2018-06-30T17:53:31.088Z,19.60
2018-06-30T17:55:58.802Z,19.60
2018-06-30T17:58:26.768Z,19.50
2018-06-30T18:00:54.727Z,19.40
2018-06-30T18:03:22.922Z,19.40
2018-06-30T18:05:50.843Z,19.40
2018-06-30T18:10:46.200Z,19.30
2018-06-30T18:13:13.949Z,19.20
2018-06-30T18:18:09.603Z,19.10
2018-06-30T18:20:37.293Z,19.00
2018-06-30T18:23:05.361Z,19.00
2018-06-30T18:25:33.132Z,18.90
2018-06-30T18:28:00.963Z,18.90
2018-06-30T18:30:28.719Z,18.80
2018-06-30T18:32:57.058Z,18.70
2018-06-30T18:35:24.797Z,18.60
2018-06-30T18:37:52.696Z,18.50
2018-06-30T18:42:48.168Z,18.30
2018-06-30T18:45:16.752Z,18.20
2018-06-30T18:47:44.693Z,18.20
2018-06-30T18:50:12.429Z,18.10
2018-06-30T18:52:40.244Z,18.10
2018-06-30T18:55:07.895Z,18.00
2018-06-30T18:57:36.676Z,18.00
2018-06-30T19:00:05.720Z,18.00
2018-06-30T19:02:33.621Z,17.90
2018-06-30T19:07:29.274Z,17.70
2018-06-30T19:09:57.149Z,17.60
2018-06-30T19:12:24.926Z,17.60
2018-06-30T19:14:52.640Z,17.50
2018-06-30T19:19:48.155Z,17.30
2018-06-30T19:22:15.856Z,17.30
2018-06-30T19:24:43.512Z,17.30
2018-06-30T19:27:11.159Z,17.20
2018-06-30T19:29:38.859Z,17.10
2018-06-30T19:32:06.641Z,17.00
2018-06-30T19:34:34.352Z,17.00
2018-06-30T19:37:02.097Z,16.90
2018-06-30T19:44:25.208Z,16.40
2018-06-30T19:46:52.928Z,16.30
2018-06-30T19:49:21.945Z,16.10
2018-06-30T19:54:17.383Z,15.90
2018-06-30T19:56:46.597Z,15.80
2018-06-30T19:59:14.356Z,15.70
2018-06-30T20:01:42.191Z,15.70
2018-06-30T20:04:09.931Z,15.60
2018-06-30T20:06:37.806Z,15.50
2018-06-30T20:09:06.933Z,15.50
2018-06-30T20:11:35.436Z,15.40
2018-06-30T20:14:03.186Z,15.30
2018-06-30T20:16:30.928Z,15.20
2018-06-30T20:18:58.565Z,15.10
2018-06-30T20:21:26.191Z,15.00
2018-06-30T20:23:54.090Z,14.90
2018-06-30T20:26:21.772Z,14.80
2018-06-30T20:31:17.181Z,14.60
2018-06-30T20:33:45.091Z,14.50
2018-06-30T20:36:12.909Z,14.40
2018-06-30T20:38:40.848Z,14.30
2018-06-30T20:41:08.610Z,14.30
2018-06-30T20:43:36.573Z,14.10
2018-06-30T20:46:04.342Z,14.00
2018-06-30T20:48:32.166Z,13.90
2018-06-30T20:51:00.361Z,13.80
2018-06-30T20:53:28.202Z,13.70
2018-06-30T20:55:56.306Z,13.50
2018-06-30T20:58:23.943Z,13.40
2018-06-30T21:00:51.631Z,13.20
2018-06-30T21:03:19.586Z,13.10
2018-06-30T21:05:48.305Z,13.00
2018-06-30T21:08:16.153Z,12.80
2018-06-30T21:10:44.416Z,12.80
2018-06-30T21:13:12.338Z,12.60
2018-06-30T21:18:08.281Z,12.40
2018-06-30T21:23:04.261Z,12.10
2018-06-30T21:25:32.226Z,12.10
2018-06-30T21:27:59.900Z,12.00
2018-06-30T21:30:28.323Z,11.90
2018-06-30T21:37:53.019Z,11.60
2018-06-30T21:40:20.698Z,11.40
2018-06-30T21:42:48.662Z,11.30
2018-06-30T21:45:16.766Z,11.30
2018-06-30T21:47:44.600Z,11.20
2018-06-30T21:50:12.597Z,11.10
2018-06-30T21:52:41.346Z,11.10
2018-06-30T21:55:09.385Z,10.90
2018-06-30T21:57:37.788Z,10.90
2018-06-30T22:00:08.975Z,10.80
2018-06-30T22:02:36.643Z,10.70
2018-06-30T22:05:04.548Z,10.60
2018-06-30T22:07:32.176Z,10.50
2018-06-30T22:09:59.908Z,10.40
2018-06-30T22:12:27.665Z,10.40
2018-06-30T22:14:55.421Z,10.30
2018-06-30T22:17:23.600Z,10.20
2018-06-30T22:19:51.463Z,10.10
2018-06-30T22:22:19.304Z,10.00
2018-06-30T22:24:47.017Z,9.90
2018-06-30T22:29:42.290Z,9.80
2018-06-30T22:32:10.008Z,9.80
2018-06-30T22:34:37.651Z,9.80
2018-06-30T22:39:44.214Z,9.70
2018-06-30T22:42:11.918Z,9.60
2018-06-30T22:44:39.693Z,9.60
2018-06-30T22:47:07.581Z,9.50
2018-06-30T22:49:35.393Z,9.40
2018-06-30T22:54:30.866Z,9.40
2018-06-30T22:56:58.703Z,9.40
2018-06-30T22:59:26.583Z,9.30
2018-06-30T23:01:54.345Z,9.20
2018-06-30T23:04:22.486Z,9.10
2018-06-30T23:09:17.787Z,9.10
2018-06-30T23:11:46.194Z,9.10
2018-06-30T23:14:13.887Z,9.10
2018-06-30T23:16:41.605Z,9.00
2018-06-30T23:21:36.935Z,9.00
2018-06-30T23:24:05.004Z,9.00
2018-06-30T23:29:00.274Z,8.80
2018-06-30T23:31:27.997Z,8.70
2018-06-30T23:33:55.621Z,8.70
2018-06-30T23:36:23.301Z,8.60
2018-06-30T23:41:19.062Z,8.50
2018-06-30T23:43:47.081Z,8.50
2018-06-30T23:46:14.882Z,8.50
2018-06-30T23:48:42.667Z,8.50
2018-06-30T23:51:11.250Z,8.50
2018-06-30T23:53:39.013Z,8.40
2018-06-30T23:56:06.900Z,8.40
2018-06-30T23:58:34.697Z,8.30
